createdAt,value
2022-11-06T00:00:45.073Z,6.55
2022-11-06T00:03:12.167Z,5.40
2022-11-06T00:06:01.443Z,4.57
2022-11-06T00:08:30.892Z,4.75
2022-11-06T00:10:57.572Z,4.07
2022-11-06T00:13:24.602Z,5.68
2022-11-06T00:15:51.149Z,3.42
2022-11-06T00:18:17.788Z,2.80
2022-11-06T00:20:44.459Z,4.63
2022-11-06T00:23:10.988Z,5.18
2022-11-06T00:25:40.989Z,4.97
2022-11-06T00:28:07.520Z,3.38
2022-11-06T00:30:34.028Z,4.65
2022-11-06T00:33:00.605Z,4.93
2022-11-06T00:35:27.124Z,3.90
2022-11-06T00:37:54.461Z,4.07
2022-11-06T00:40:20.964Z,5.32
2022-11-06T00:42:47.502Z,7.13
2022-11-06T00:45:13.956Z,3.60
2022-11-06T00:47:40.425Z,4.88
2022-11-06T00:50:07.413Z,3.53
2022-11-06T00:52:33.948Z,4.30
2022-11-06T00:55:00.467Z,4.22
2022-11-06T00:57:30.053Z,4.18
2022-11-06T00:59:56.557Z,4.65
2022-11-06T01:02:23.301Z,4.35
2022-11-06T01:04:49.905Z,2.92
2022-11-06T01:07:16.451Z,2.53
2022-11-06T01:09:43.017Z,3.83
2022-11-06T01:12:13.908Z,8.52
2022-11-06T01:14:41.729Z,5.72
2022-11-06T01:17:08.629Z,4.35
2022-11-06T01:19:35.118Z,3.45
2022-11-06T01:22:01.843Z,3.58
2022-11-06T01:24:29.036Z,5.32
2022-11-06T01:29:43.175Z,4.07
2022-11-06T01:32:10.223Z,2.88
2022-11-06T01:34:36.950Z,5.38
2022-11-06T01:37:03.618Z,3.75
2022-11-06T01:39:30.532Z,4.47
2022-11-06T01:41:57.173Z,3.65
2022-11-06T01:44:35.768Z,5.47
2022-11-06T01:47:04.844Z,3.63
2022-11-06T01:49:37.391Z,3.67
2022-11-06T01:52:10.463Z,4.90
2022-11-06T01:54:40.147Z,6.20
2022-11-06T01:57:07.521Z,7.32
2022-11-06T01:59:37.434Z,8.07
2022-11-06T02:02:05.081Z,6.45
2022-11-06T02:04:38.608Z,8.82
2022-11-06T02:07:05.414Z,7.30
2022-11-06T02:09:34.522Z,7.20
2022-11-06T02:12:11.978Z,5.43
2022-11-06T02:14:44.277Z,6.53
2022-11-06T02:17:22.052Z,6.07
2022-11-06T02:20:18.302Z,5.18
2022-11-06T02:22:53.707Z,5.55
2022-11-06T02:25:35.587Z,5.43
2022-11-06T02:28:11.114Z,6.00
2022-11-06T02:30:44.723Z,5.65
2022-11-06T02:33:22.766Z,8.90
2022-11-06T02:35:56.476Z,4.93
2022-11-06T02:38:28.336Z,6.78
2022-11-06T02:40:58.927Z,9.52
2022-11-06T02:43:32.591Z,6.35
2022-11-06T02:46:21.611Z,7.60
2022-11-06T02:48:53.328Z,5.78
2022-11-06T02:51:25.626Z,5.68
2022-11-06T02:53:54.681Z,9.10
2022-11-06T02:56:27.170Z,6.53
2022-11-06T02:59:02.185Z,6.07
2022-11-06T03:01:37.712Z,6.70
2022-11-06T03:04:13.373Z,3.42
2022-11-06T03:06:45.490Z,5.72
2022-11-06T03:09:20.472Z,5.55
2022-11-06T03:12:00.483Z,5.68
2022-11-06T03:14:44.539Z,5.55
2022-11-06T03:17:35.636Z,5.47
2022-11-06T03:20:23.765Z,4.07
2022-11-06T03:23:27.498Z,6.40
2022-11-06T03:26:15.367Z,4.40
2022-11-06T03:29:02.895Z,5.32
2022-11-06T03:31:37.746Z,4.40
2022-11-06T03:34:11.308Z,5.97
2022-11-06T03:36:42.598Z,3.70
2022-11-06T03:39:15.206Z,5.15
2022-11-06T03:41:45.918Z,4.28
2022-11-06T03:44:17.906Z,4.93
2022-11-06T03:46:49.636Z,5.22
2022-11-06T03:49:22.924Z,7.07
2022-11-06T03:51:56.104Z,4.28
2022-11-06T03:54:31.613Z,5.00
2022-11-06T03:57:04.314Z,5.88
2022-11-06T03:59:35.719Z,4.32
2022-11-06T04:02:03.545Z,5.70
2022-11-06T04:04:38.000Z,6.20
2022-11-06T04:07:24.581Z,6.40
2022-11-06T04:10:17.899Z,6.72
2022-11-06T04:13:06.118Z,5.68
2022-11-06T04:15:38.676Z,8.43
2022-11-06T04:18:13.362Z,5.80
2022-11-06T04:21:08.217Z,3.72
2022-11-06T04:24:36.244Z,6.50
2022-11-06T04:27:23.678Z,5.93
2022-11-06T04:30:20.174Z,9.30
2022-11-06T04:33:01.713Z,9.15
2022-11-06T04:35:45.800Z,6.35
2022-11-06T04:38:18.281Z,4.97
2022-11-06T04:41:22.252Z,5.88
2022-11-06T04:43:58.759Z,6.40
2022-11-06T04:46:44.094Z,7.55
2022-11-06T04:49:12.787Z,5.25
2022-11-06T04:51:40.904Z,6.05
2022-11-06T04:54:10.195Z,4.82
2022-11-06T04:56:42.864Z,3.65
2022-11-06T04:59:15.896Z,5.95
2022-11-06T05:01:42.466Z,4.45
2022-11-06T05:04:09.613Z,6.57
2022-11-06T05:06:36.196Z,5.88
2022-11-06T05:09:03.204Z,6.30
2022-11-06T05:11:29.708Z,4.47
2022-11-06T05:13:56.614Z,7.50
2022-11-06T05:16:23.186Z,6.57
2022-11-06T05:18:49.880Z,7.00
2022-11-06T05:21:35.326Z,10.13
2022-11-06T05:24:02.007Z,7.30
2022-11-06T05:26:28.591Z,6.45
2022-11-06T05:28:55.119Z,7.43
2022-11-06T05:31:21.773Z,5.28
2022-11-06T05:33:49.534Z,6.95
2022-11-06T05:36:16.471Z,5.35
2022-11-06T05:38:43.196Z,7.88
2022-11-06T05:41:09.717Z,6.30
2022-11-06T05:43:36.344Z,6.38
2022-11-06T05:46:03.594Z,7.88
2022-11-06T05:48:30.144Z,6.28
2022-11-06T05:51:04.814Z,7.80
2022-11-06T05:53:34.124Z,4.40
2022-11-06T05:56:01.058Z,7.57
2022-11-06T05:58:28.115Z,5.93
2022-11-06T06:00:55.991Z,8.13
2022-11-06T06:03:22.936Z,6.75
2022-11-06T06:05:50.083Z,7.60
2022-11-06T06:08:16.614Z,5.90
2022-11-06T06:10:45.116Z,6.88
2022-11-06T06:13:12.119Z,5.57
2022-11-06T06:15:39.651Z,5.40
2022-11-06T06:18:06.791Z,6.75
2022-11-06T06:20:34.373Z,5.15
2022-11-06T06:23:01.006Z,5.97
2022-11-06T06:25:28.791Z,4.43
2022-11-06T06:27:56.458Z,6.05
2022-11-06T06:30:24.165Z,7.03
2022-11-06T06:32:51.498Z,8.75
2022-11-06T06:35:18.154Z,5.18
2022-11-06T06:38:00.042Z,9.15
2022-11-06T06:40:27.454Z,6.35
2022-11-06T06:42:58.008Z,4.65
2022-11-06T06:45:26.550Z,6.50
2022-11-06T06:47:53.171Z,11.65
2022-11-06T06:50:20.758Z,5.57
2022-11-06T06:52:50.048Z,7.35
2022-11-06T06:55:17.002Z,7.03
2022-11-06T06:57:43.602Z,4.93
2022-11-06T07:00:10.955Z,7.03
2022-11-06T07:02:37.472Z,6.90
2022-11-06T07:05:04.224Z,5.82
2022-11-06T07:07:32.456Z,5.78
2022-11-06T07:09:59.018Z,6.50
2022-11-06T07:12:25.770Z,4.65
2022-11-06T07:14:52.280Z,10.88
2022-11-06T07:17:18.823Z,6.30
2022-11-06T07:19:45.420Z,4.43
2022-11-06T07:22:13.214Z,6.78
2022-11-06T07:24:39.863Z,5.45
2022-11-06T07:27:06.541Z,11.43
2022-11-06T07:29:33.120Z,5.93
2022-11-06T07:31:59.911Z,7.32
2022-11-06T07:34:26.948Z,9.18
2022-11-06T07:36:56.398Z,6.25
2022-11-06T07:39:25.063Z,10.85
2022-11-06T07:41:51.630Z,7.28
2022-11-06T07:44:18.293Z,8.55
2022-11-06T07:46:44.828Z,6.55
2022-11-06T07:49:11.668Z,6.65
2022-11-06T07:51:38.362Z,10.50
2022-11-06T07:54:04.996Z,9.98
2022-11-06T07:56:31.551Z,8.13
2022-11-06T07:58:58.225Z,6.25
2022-11-06T08:01:24.832Z,5.72
2022-11-06T08:03:51.515Z,9.80
2022-11-06T08:06:18.055Z,7.47
2022-11-06T08:08:44.901Z,8.68
2022-11-06T08:11:12.136Z,12.82
2022-11-06T08:13:39.581Z,12.75
2022-11-06T08:16:14.242Z,13.90
2022-11-06T08:18:41.577Z,12.90
2022-11-06T08:21:08.236Z,12.57
2022-11-06T08:23:35.572Z,15.88
2022-11-06T08:26:04.948Z,16.17
2022-11-06T08:28:31.646Z,19.00
2022-11-06T08:30:58.167Z,13.32
2022-11-06T08:33:24.874Z,15.63
2022-11-06T08:35:51.444Z,15.27
2022-11-06T08:38:18.213Z,11.50
2022-11-06T08:40:49.339Z,10.73
2022-11-06T08:43:19.111Z,10.65
2022-11-06T08:45:45.809Z,10.43
2022-11-06T08:48:12.504Z,12.63
2022-11-06T08:50:40.184Z,10.95
2022-11-06T08:53:07.274Z,11.60
2022-11-06T08:55:36.764Z,8.85
2022-11-06T08:58:04.659Z,10.00
2022-11-06T09:00:31.426Z,10.75
2022-11-06T09:02:59.597Z,12.65
2022-11-06T09:05:26.868Z,9.52
2022-11-06T09:07:54.173Z,12.23
2022-11-06T09:10:20.736Z,8.30
2022-11-06T09:12:48.459Z,10.23
2022-11-06T09:15:15.551Z,7.50
2022-11-06T09:17:47.262Z,13.15
2022-11-06T09:20:15.031Z,7.70
2022-11-06T09:22:42.115Z,8.18
2022-11-06T09:25:10.559Z,7.25
2022-11-06T09:27:47.846Z,10.52
2022-11-06T09:30:17.038Z,9.65
2022-11-06T09:32:54.804Z,8.57
2022-11-06T09:35:23.401Z,6.85
2022-11-06T09:37:50.210Z,5.72
2022-11-06T09:40:29.241Z,5.35
2022-11-06T09:43:08.100Z,7.38
2022-11-06T09:45:39.714Z,7.13
2022-11-06T09:48:24.089Z,6.43
2022-11-06T09:51:00.659Z,6.25
2022-11-06T09:53:35.157Z,8.40
2022-11-06T09:56:04.541Z,4.65
2022-11-06T09:58:38.635Z,5.65
2022-11-06T10:01:24.471Z,4.10
2022-11-06T10:03:58.906Z,6.70
2022-11-06T10:06:27.580Z,4.55
2022-11-06T10:09:02.458Z,4.65
2022-11-06T10:11:50.132Z,3.55
2022-11-06T10:14:40.723Z,2.88
2022-11-06T10:17:32.341Z,3.45
2022-11-06T10:20:27.172Z,3.88
2022-11-06T10:23:05.258Z,3.17
2022-11-06T10:25:54.630Z,2.70
2022-11-06T10:28:42.547Z,5.18
2022-11-06T10:31:22.213Z,3.72
2022-11-06T10:34:10.653Z,1.98
2022-11-06T10:36:49.905Z,3.83
2022-11-06T10:39:23.535Z,1.73
2022-11-06T10:41:54.657Z,2.72
2022-11-06T10:44:27.879Z,2.80
2022-11-06T10:47:03.612Z,2.33
2022-11-06T10:49:30.124Z,3.70
2022-11-06T10:52:07.610Z,6.80
2022-11-06T10:54:49.570Z,2.67
2022-11-06T10:57:24.961Z,2.88
2022-11-06T10:59:55.318Z,5.18
2022-11-06T11:02:25.267Z,3.78
2022-11-06T11:04:57.575Z,5.47
2022-11-06T11:07:29.301Z,3.33
2022-11-06T11:09:55.874Z,4.78
2022-11-06T11:12:31.126Z,5.07
2022-11-06T11:15:16.169Z,3.38
2022-11-06T11:17:43.341Z,5.93
2022-11-06T11:20:33.625Z,3.17
2022-11-06T11:23:22.876Z,2.60
2022-11-06T11:25:52.627Z,6.05
2022-11-06T11:28:36.302Z,3.03
2022-11-06T11:31:10.370Z,3.00
2022-11-06T11:33:38.939Z,5.35
2022-11-06T11:36:07.413Z,2.58
2022-11-06T11:38:40.341Z,2.53
2022-11-06T11:41:11.580Z,1.80
2022-11-06T11:43:38.429Z,2.38
2022-11-06T11:46:10.757Z,2.45
2022-11-06T11:48:53.787Z,2.63
2022-11-06T11:51:29.294Z,2.80
2022-11-06T11:54:02.959Z,1.88
2022-11-06T11:56:58.176Z,1.88
2022-11-06T11:59:32.383Z,3.67
2022-11-06T12:02:12.748Z,2.22
2022-11-06T12:04:45.438Z,1.38
2022-11-06T12:07:22.456Z,4.28
2022-11-06T12:09:49.008Z,2.30
2022-11-06T12:12:34.305Z,3.03
2022-11-06T12:15:03.645Z,2.53
2022-11-06T12:17:31.712Z,1.65
2022-11-06T12:20:00.568Z,2.85
2022-11-06T12:22:33.504Z,2.50
2022-11-06T12:25:09.544Z,1.73
2022-11-06T12:27:43.940Z,3.10
2022-11-06T12:30:20.777Z,1.77
2022-11-06T12:33:03.698Z,3.20
2022-11-06T12:35:39.584Z,3.95
2022-11-06T12:38:44.267Z,0.93
2022-11-06T12:41:17.002Z,0.98
2022-11-06T12:43:46.715Z,2.22
2022-11-06T12:46:32.126Z,1.00
2022-11-06T12:49:17.659Z,2.67
2022-11-06T12:52:09.209Z,1.52
2022-11-06T12:54:51.144Z,2.30
2022-11-06T12:57:26.910Z,1.80
2022-11-06T13:00:14.315Z,5.38
2022-11-06T13:03:02.330Z,2.88
2022-11-06T13:05:47.773Z,1.73
2022-11-06T13:08:44.375Z,2.92
2022-11-06T13:11:36.907Z,2.22
2022-11-06T13:14:25.006Z,5.05
2022-11-06T13:17:08.911Z,2.53
2022-11-06T13:19:58.527Z,2.33
2022-11-06T13:22:46.169Z,1.00
2022-11-06T13:25:46.933Z,2.45
2022-11-06T13:28:16.555Z,1.27
2022-11-06T13:30:44.226Z,1.92
2022-11-06T13:33:10.598Z,1.42
2022-11-06T13:35:41.419Z,4.22
2022-11-06T13:38:16.689Z,2.78
2022-11-06T13:40:53.596Z,1.83
2022-11-06T13:43:26.257Z,0.98
2022-11-06T13:46:16.068Z,1.73
2022-11-06T13:49:05.964Z,3.75
2022-11-06T13:51:46.426Z,1.60
2022-11-06T13:54:39.804Z,4.15
2022-11-06T13:57:15.569Z,1.65
2022-11-06T14:00:05.539Z,1.48
2022-11-06T14:02:57.579Z,1.88
2022-11-06T14:05:49.599Z,3.75
2022-11-06T14:08:30.161Z,3.58
2022-11-06T14:10:58.723Z,1.02
2022-11-06T14:13:36.355Z,2.47
2022-11-06T14:16:14.316Z,3.70
2022-11-06T14:18:41.891Z,3.25
2022-11-06T14:21:49.184Z,3.25
2022-11-06T14:24:34.136Z,1.40
2022-11-06T14:27:11.039Z,1.95
2022-11-06T14:29:42.681Z,2.15
2022-11-06T14:32:21.515Z,2.20
2022-11-06T14:34:48.423Z,1.25
2022-11-06T14:37:18.021Z,1.40
2022-11-06T14:39:56.937Z,1.25
2022-11-06T14:42:27.083Z,3.40
2022-11-06T14:44:55.773Z,1.67
2022-11-06T14:47:39.631Z,2.30
2022-11-06T14:50:34.672Z,2.97
2022-11-06T14:53:03.848Z,1.90
2022-11-06T14:55:55.998Z,2.28
2022-11-06T14:58:25.279Z,2.75
2022-11-06T15:00:58.406Z,1.50
2022-11-06T15:03:30.163Z,1.85
2022-11-06T15:06:06.391Z,4.75
2022-11-06T15:08:45.201Z,2.17
2022-11-06T15:11:29.885Z,2.13
2022-11-06T15:14:02.039Z,4.45
2022-11-06T15:16:44.476Z,3.40
2022-11-06T15:19:21.422Z,2.40
2022-11-06T15:22:12.806Z,3.00
2022-11-06T15:24:45.621Z,3.97
2022-11-06T15:27:23.514Z,8.43
2022-11-06T15:29:55.801Z,3.05
2022-11-06T15:32:25.863Z,4.15
2022-11-06T15:34:58.546Z,3.28
2022-11-06T15:37:37.582Z,4.50
2022-11-06T15:40:09.757Z,3.00
2022-11-06T15:42:39.013Z,4.95
2022-11-06T15:45:20.654Z,5.10
2022-11-06T15:48:01.270Z,3.60
2022-11-06T15:50:30.427Z,4.32
2022-11-06T15:53:12.128Z,2.63
2022-11-06T15:55:45.430Z,4.65
2022-11-06T15:58:30.837Z,4.50
2022-11-06T16:01:00.072Z,4.65
2022-11-06T16:03:31.552Z,6.18
2022-11-06T16:06:02.613Z,4.95
2022-11-06T16:08:31.264Z,6.25
2022-11-06T16:10:58.955Z,5.68
2022-11-06T16:13:29.072Z,5.55
2022-11-06T16:15:59.259Z,10.70
2022-11-06T16:18:27.652Z,6.65
2022-11-06T16:21:20.532Z,18.40
2022-11-06T16:23:57.444Z,13.75
2022-11-06T16:26:36.357Z,15.45
2022-11-06T16:29:18.247Z,22.55
2022-11-06T16:31:48.655Z,12.05
2022-11-06T16:34:32.992Z,6.13
2022-11-06T16:37:29.700Z,10.52
2022-11-06T16:40:00.194Z,14.13
2022-11-06T16:42:38.724Z,5.72
2022-11-06T16:45:08.003Z,3.80
2022-11-06T16:47:34.679Z,7.07
2022-11-06T16:50:02.668Z,5.50
2022-11-06T16:52:35.529Z,5.45
2022-11-06T16:55:03.546Z,3.88
2022-11-06T16:57:46.530Z,8.13
2022-11-06T17:00:19.256Z,7.53
2022-11-06T17:02:52.899Z,8.32
2022-11-06T17:05:22.785Z,4.03
2022-11-06T17:08:05.817Z,5.25
2022-11-06T17:10:39.116Z,5.05
2022-11-06T17:13:19.938Z,6.03
2022-11-06T17:16:07.112Z,5.72
2022-11-06T17:18:36.356Z,3.92
2022-11-06T17:21:05.995Z,6.25
2022-11-06T17:23:34.906Z,7.78
2022-11-06T17:26:06.300Z,8.43
2022-11-06T17:28:32.839Z,4.80
2022-11-06T17:30:59.462Z,6.18
2022-11-06T17:33:26.015Z,10.00
2022-11-06T17:35:52.724Z,5.90
2022-11-06T17:38:19.311Z,5.10
2022-11-06T17:40:45.910Z,1.60
2022-11-06T17:43:13.277Z,2.80
2022-11-06T17:45:42.974Z,2.90
2022-11-06T17:48:09.714Z,3.13
2022-11-06T17:50:56.266Z,7.38
2022-11-06T17:53:22.859Z,7.05
2022-11-06T17:55:49.444Z,2.42
2022-11-06T17:58:16.426Z,3.65
2022-11-06T18:00:43.493Z,3.63
2022-11-06T18:03:17.989Z,3.35
2022-11-06T18:05:45.397Z,2.08
2022-11-06T18:08:13.406Z,4.68
2022-11-06T18:10:40.895Z,3.35
2022-11-06T18:13:07.695Z,2.42
2022-11-06T18:15:35.532Z,1.88
2022-11-06T18:18:02.456Z,4.75
2022-11-06T18:20:29.153Z,4.82
2022-11-06T18:22:55.703Z,6.63
2022-11-06T18:25:22.220Z,5.28
2022-11-06T18:27:48.746Z,6.32
2022-11-06T18:30:15.606Z,4.47
2022-11-06T18:32:42.311Z,5.20
2022-11-06T18:35:11.465Z,4.93
2022-11-06T18:37:38.253Z,4.05
2022-11-06T18:40:05.618Z,3.38
2022-11-06T18:42:32.231Z,4.30
2022-11-06T18:44:58.923Z,3.92
2022-11-06T18:47:25.538Z,3.88
2022-11-06T18:49:52.187Z,3.42
2022-11-06T18:52:38.034Z,3.58
2022-11-06T18:55:05.886Z,3.97
2022-11-06T18:57:32.491Z,3.88
2022-11-06T18:59:59.154Z,3.00
2022-11-06T19:02:25.903Z,3.03
2022-11-06T19:04:53.015Z,2.20
2022-11-06T19:07:20.062Z,4.15
2022-11-06T19:09:46.697Z,2.63
2022-11-06T19:12:13.443Z,4.82
2022-11-06T19:14:40.313Z,2.97
2022-11-06T19:17:07.118Z,7.45
2022-11-06T19:19:33.887Z,2.65
2022-11-06T19:22:00.402Z,10.00
2022-11-06T19:24:27.221Z,11.38
2022-11-06T19:26:53.780Z,9.95
2022-11-06T19:29:20.631Z,8.23
2022-11-06T19:31:47.158Z,6.93
2022-11-06T19:34:17.185Z,3.03
2022-11-06T19:36:43.841Z,2.40
2022-11-06T19:39:11.910Z,3.60
2022-11-06T19:41:39.308Z,4.97
2022-11-06T19:44:09.353Z,1.30
2022-11-06T19:46:37.165Z,2.60
2022-11-06T19:49:05.621Z,2.40
2022-11-06T19:51:33.397Z,2.95
2022-11-06T19:54:01.777Z,1.90
2022-11-06T19:56:28.737Z,2.22
2022-11-06T19:58:55.720Z,3.63
2022-11-06T20:01:22.583Z,4.05
2022-11-06T20:03:50.113Z,3.45
2022-11-06T20:06:17.384Z,3.58
2022-11-06T20:08:47.958Z,4.55
2022-11-06T20:11:15.816Z,2.88
2022-11-06T20:13:43.313Z,2.35
2022-11-06T20:16:19.859Z,2.50
2022-11-06T20:18:54.632Z,5.57
2022-11-06T20:21:23.536Z,4.03
2022-11-06T20:23:50.091Z,1.75
2022-11-06T20:26:19.200Z,2.10
2022-11-06T20:28:48.609Z,1.92
2022-11-06T20:31:19.529Z,3.40
2022-11-06T20:33:47.140Z,2.72
2022-11-06T20:36:23.933Z,4.00
2022-11-06T20:38:57.278Z,2.47
2022-11-06T20:41:24.842Z,3.20
2022-11-06T20:43:52.493Z,3.42
2022-11-06T20:46:21.951Z,2.40
2022-11-06T20:48:49.593Z,2.65
2022-11-06T20:51:21.982Z,3.03
2022-11-06T20:53:50.310Z,4.85
2022-11-06T20:56:20.500Z,3.25
2022-11-06T20:58:48.404Z,5.05
2022-11-06T21:01:20.204Z,2.70
2022-11-06T21:03:49.478Z,3.60
2022-11-06T21:06:18.683Z,4.38
2022-11-06T21:08:46.331Z,3.45
2022-11-06T21:11:17.149Z,2.80
2022-11-06T21:13:48.263Z,3.35
2022-11-06T21:16:21.460Z,3.33
2022-11-06T21:18:51.625Z,3.05
2022-11-06T21:21:22.620Z,2.35
2022-11-06T21:23:50.835Z,3.40
2022-11-06T21:26:20.413Z,2.83
2022-11-06T21:28:47.290Z,3.00
2022-11-06T21:31:17.258Z,2.53
2022-11-06T21:33:47.450Z,4.72
2022-11-06T21:36:17.238Z,3.65
2022-11-06T21:38:44.412Z,3.97
2022-11-06T21:41:14.258Z,3.38
2022-11-06T21:43:41.657Z,2.90
2022-11-06T21:46:11.236Z,3.05
2022-11-06T21:48:47.310Z,2.28
2022-11-06T21:51:23.224Z,2.38
2022-11-06T21:54:09.988Z,3.25
2022-11-06T21:56:38.955Z,3.45
2022-11-06T21:59:08.727Z,3.35
2022-11-06T22:01:39.555Z,2.38
2022-11-06T22:04:06.672Z,4.85
2022-11-06T22:06:33.487Z,4.40
2022-11-06T22:09:03.203Z,2.45
2022-11-06T22:11:35.987Z,2.55
2022-11-06T22:14:10.090Z,5.57
2022-11-06T22:16:39.146Z,4.18
2022-11-06T22:19:07.264Z,2.97
2022-11-06T22:21:36.609Z,4.40
2022-11-06T22:24:03.629Z,3.00
2022-11-06T22:26:32.963Z,2.65
2022-11-06T22:29:01.905Z,2.25
2022-11-06T22:31:29.307Z,4.28
2022-11-06T22:33:56.181Z,3.67
2022-11-06T22:36:24.007Z,3.50
2022-11-06T22:38:51.130Z,5.55
2022-11-06T22:41:23.730Z,4.22
2022-11-06T22:43:51.239Z,6.57
2022-11-06T22:46:23.061Z,4.65
2022-11-06T22:48:51.118Z,6.22
2022-11-06T22:51:24.338Z,4.55
2022-11-06T22:53:51.830Z,3.90
2022-11-06T22:56:19.776Z,4.32
2022-11-06T22:58:46.799Z,4.68
2022-11-06T23:01:14.003Z,3.05
2022-11-06T23:03:40.894Z,4.78
2022-11-06T23:06:09.699Z,3.67
2022-11-06T23:08:39.732Z,3.80
2022-11-06T23:11:10.982Z,4.28
2022-11-06T23:13:38.278Z,3.60
2022-11-06T23:16:11.942Z,4.68
2022-11-06T23:18:39.390Z,3.88
2022-11-06T23:21:17.034Z,3.33
2022-11-06T23:23:44.696Z,3.95
2022-11-06T23:26:13.743Z,3.13
2022-11-06T23:28:40.387Z,4.50
2022-11-06T23:31:08.682Z,3.53
2022-11-06T23:33:35.488Z,2.88
2022-11-06T23:36:07.130Z,3.13
2022-11-06T23:38:33.753Z,2.97
2022-11-06T23:41:26.853Z,4.30
2022-11-06T23:43:54.485Z,4.10
2022-11-06T23:46:22.640Z,3.00
2022-11-06T23:48:49.153Z,3.65
2022-11-06T23:51:15.691Z,3.45
2022-11-06T23:53:42.370Z,3.83
2022-11-06T23:56:11.164Z,4.72
2022-11-06T23:58:38.837Z,3.55
